• Join FlightAware (Why Join?)
  • Login
  • US Flag 
11:13AM EDT


 

Airport Tracker/Info


-or-


 

Live Flight TrackerFlight Track Log ✈ CSN3342 ✈ 22-May-2012 ✈ ZJHK / HAK - ZGNN / NNG

Flight Track Log - Related Links

Times and Time Zones

All times are in EDT time to prevent confusion due to time zone crossing. See the CSN3342 flight status page for this flight to view local times or setup timezone preferences in your user account.

Time Position Orientation Groundspeed Altitude Reporting Facility
EDT Latitude Longitude Course Direction KTS MPH feet Rate Location/Type
06:59AM 21.6688 108.9885 321° Northwest  Level Estimated
07:00AM 21.7293 108.9364 321° Northwest  Level Estimated
07:01AM 21.7899 108.8842 321° Northwest  Level Estimated
07:02AM 21.8504 108.8319 321° Northwest  Level Estimated
07:03AM 21.9109 108.7797 321° Northwest  Level Estimated
07:04AM 21.9713 108.7273 321° Northwest  Level Estimated
07:05AM 22.0318 108.6749 321° Northwest  Level Estimated
07:06AM 22.0922 108.6225 321° Northwest  Level Estimated
07:07AM 22.1526 108.5701 321° Northwest  Level Estimated
07:08AM 22.2130 108.5175 321° Northwest  Level Estimated
07:09AM 22.2734 108.4650 321° Northwest  Level Estimated
07:10AM 22.3338 108.4124 321° Northwest  Level Estimated
07:11AM 22.3941 108.3597 321° Northwest  Level Estimated
07:12AM 22.4545 108.3070 321° Northwest  Level Estimated
07:13AM 22.5148 108.2543 321° Northwest  Level Estimated
07:14AM 22.5751 108.2015 321° Northwest  Level Estimated
07:15AM 22.6354 108.1487 141° Southeast  Level Estimated
07:16AM 22.5751 108.2015 321° Northwest  Level Estimated
07:17AM 22.6354 108.1487 141° Southeast  Level Estimated
07:18AM 22.5751 108.2015 321° Northwest  Level Estimated
07:19AM 22.6354 108.1487 141° Southeast  Level Estimated
07:20AM 22.5751 108.2015 321° Northwest  Level Estimated
07:21AM 22.6354 108.1487 141° Southeast  Level Estimated
07:22AM 22.5751 108.2015 321° Northwest  Level Estimated
07:23AM 22.6354 108.1487 141° Southeast  Level Estimated
07:24AM 22.5751 108.2015 321° Northwest  Level Estimated
07:25AM 22.6354 108.1487 141° Southeast  Level Estimated
07:26AM 22.5751 108.2015 321° Northwest  Level Estimated
07:27AM 22.6354 108.1487 141° Southeast  Level Estimated
07:28AM 22.5751 108.2015 321° Northwest  Level Estimated
07:29AM 22.6354 108.1487 321° Northwest  Level Estimated